YKYB weather

Kyabram Airport
Private Airfield in the Shire of Campaspe, Victoria, Australia

Public forecast

Using degrees Celsius for public forecast. Weather courtesy of forecast.io.

Closest aviation weather report (METAR) to Kyabram Airport

Closest report is Wangaratta Airport, 64.7 nm (119.9 km) E. Retrieved 2020/04/05 16:00 UTC (29 minutes ago):

YWGT 051600Z AUTO 25005KT 9999 // SCT035 SCT041 BKN046 13/12 Q1015

Closest aviation forecast (TAF) to Kyabram Airport

Forecast is more than 12 hours old.

Closest forecast is Wangaratta Airport, 64.7 nm (119.9 km) E. Retrieved 2020-04-05 02:48 UTC (14 hours ago):

TAF TAF YWGT 050146Z 0502/0514 34014KT 9999 -SHRA BKN025 BECMG 0509/0511 27008KT 9999 -SHRA BKN008 INTER 0503/0509 29015G25KT 4000 SHRA BKN010